createdAt,value
2023-05-10T00:01:14.569Z,2.70
2023-05-10T00:06:17.403Z,3.40
2023-05-10T00:11:22.193Z,3.10
2023-05-10T00:16:25.637Z,3.30
2023-05-10T00:21:29.442Z,3.00
2023-05-10T00:26:32.025Z,3.40
2023-05-10T00:31:34.719Z,3.30
2023-05-10T00:36:37.707Z,4.00
2023-05-10T00:41:40.359Z,4.30
2023-05-10T00:46:43.013Z,5.00
2023-05-10T00:51:46.000Z,3.00
2023-05-10T00:56:50.329Z,4.60
2023-05-10T01:01:53.172Z,3.90
2023-05-10T01:06:55.715Z,3.90
2023-05-10T01:11:58.504Z,1.80
2023-05-10T01:17:03.134Z,3.40
2023-05-10T01:22:49.054Z,3.50
2023-05-10T01:28:15.635Z,4.10
2023-05-10T01:33:30.390Z,4.00
2023-05-10T01:38:51.669Z,3.80
2023-05-10T01:44:29.914Z,3.80
2023-05-10T01:49:41.329Z,3.50
2023-05-10T01:54:54.305Z,3.60
2023-05-10T01:59:58.381Z,3.70
2023-05-10T02:05:01.495Z,4.40
2023-05-10T02:10:08.552Z,4.50
2023-05-10T02:15:15.746Z,3.60
2023-05-10T02:20:20.270Z,3.90
2023-05-10T02:25:25.968Z,3.30
2023-05-10T02:30:30.419Z,3.60
2023-05-10T02:35:34.492Z,3.80
2023-05-10T02:40:39.093Z,3.30
2023-05-10T02:45:44.068Z,3.80
2023-05-10T02:50:52.203Z,4.10
2023-05-10T02:56:01.627Z,4.20
2023-05-10T03:01:04.440Z,3.90
2023-05-10T03:06:07.031Z,4.00
2023-05-10T03:11:43.931Z,4.20
2023-05-10T03:16:58.355Z,3.80
2023-05-10T03:22:09.674Z,4.60
2023-05-10T03:27:15.324Z,3.50
2023-05-10T03:32:18.252Z,3.90
2023-05-10T03:37:20.816Z,4.30
2023-05-10T03:42:23.441Z,4.20
2023-05-10T03:47:26.124Z,3.90
2023-05-10T03:52:28.889Z,4.50
2023-05-10T03:57:31.438Z,4.50
2023-05-10T04:02:34.253Z,5.10
2023-05-10T04:07:37.089Z,4.30
2023-05-10T04:12:39.672Z,4.50
2023-05-10T04:17:42.248Z,4.50
2023-05-10T04:22:44.820Z,4.80
2023-05-10T04:27:47.410Z,4.90
2023-05-10T04:32:50.517Z,5.00
2023-05-10T04:37:53.096Z,5.40
2023-05-10T04:42:55.635Z,5.20
2023-05-10T04:47:58.254Z,4.60
2023-05-10T04:53:00.994Z,4.70
2023-05-10T04:58:03.948Z,4.60
2023-05-10T05:03:07.181Z,5.30
2023-05-10T05:08:09.960Z,4.50
2023-05-10T05:13:13.761Z,4.70
2023-05-10T05:18:16.489Z,5.00
2023-05-10T05:23:19.851Z,4.30
2023-05-10T05:28:23.125Z,5.60
2023-05-10T05:33:25.830Z,6.10
2023-05-10T05:38:28.584Z,5.80
2023-05-10T05:43:31.434Z,5.80
2023-05-10T05:48:34.263Z,4.90
2023-05-10T05:53:37.087Z,4.50
2023-05-10T05:58:40.025Z,4.10
2023-05-10T06:03:42.757Z,4.20
2023-05-10T06:08:45.652Z,4.30
2023-05-10T06:13:48.749Z,4.30
2023-05-10T06:18:52.311Z,4.00
2023-05-10T06:23:54.823Z,4.30
2023-05-10T06:28:57.413Z,3.70
2023-05-10T06:33:59.940Z,4.00
2023-05-10T06:39:02.634Z,3.20
2023-05-10T06:44:05.289Z,3.40
2023-05-10T06:49:07.962Z,3.50
2023-05-10T06:54:13.086Z,3.50
2023-05-10T06:59:17.486Z,3.80
2023-05-10T07:04:20.222Z,3.50
2023-05-10T07:09:22.843Z,3.50
2023-05-10T07:14:25.493Z,2.90
2023-05-10T07:19:28.114Z,3.10
2023-05-10T07:24:32.158Z,2.90
2023-05-10T07:29:34.825Z,3.10
2023-05-10T07:34:37.442Z,3.20
2023-05-10T07:39:40.023Z,3.00
2023-05-10T07:44:42.841Z,3.10
2023-05-10T07:49:45.531Z,3.10
2023-05-10T07:54:48.109Z,3.20
2023-05-10T07:59:50.780Z,2.90
2023-05-10T08:04:53.833Z,3.00
2023-05-10T08:09:56.713Z,3.00
2023-05-10T08:14:59.343Z,3.30
2023-05-10T08:20:02.426Z,2.90
2023-05-10T08:25:06.109Z,3.00
2023-05-10T08:30:10.112Z,3.30
2023-05-10T08:35:12.732Z,3.10
2023-05-10T08:40:16.619Z,3.60
2023-05-10T08:45:21.479Z,3.50
2023-05-10T08:50:26.303Z,2.90
2023-05-10T08:55:29.164Z,3.80
2023-05-10T09:00:32.317Z,3.20
2023-05-10T09:05:37.177Z,3.20
2023-05-10T09:10:41.341Z,3.50
2023-05-10T09:15:46.226Z,3.20
2023-05-10T09:20:49.969Z,3.40
2023-05-10T09:26:08.593Z,3.70
2023-05-10T09:31:11.214Z,2.80
2023-05-10T09:36:15.196Z,3.40
2023-05-10T09:41:29.568Z,2.70
2023-05-10T09:46:43.947Z,3.60
2023-05-10T09:51:47.625Z,2.90
2023-05-10T09:56:53.768Z,3.30
2023-05-10T10:02:01.518Z,2.70
2023-05-10T10:07:06.364Z,2.60
2023-05-10T10:12:11.106Z,2.80
2023-05-10T10:17:16.628Z,2.70
2023-05-10T10:22:19.272Z,3.20
2023-05-10T10:27:40.388Z,2.30
2023-05-10T10:33:29.243Z,2.40
2023-05-10T10:39:00.203Z,2.40
2023-05-10T10:44:39.078Z,2.30
2023-05-10T10:49:41.849Z,2.60
2023-05-10T10:55:07.179Z,2.90
2023-05-10T11:00:30.392Z,2.40
2023-05-10T11:05:41.462Z,2.80
2023-05-10T11:11:04.789Z,3.70
2023-05-10T11:16:16.146Z,2.70
2023-05-10T11:21:28.012Z,2.80
2023-05-10T11:26:36.521Z,2.60
2023-05-10T11:31:46.233Z,2.30
2023-05-10T11:36:55.450Z,1.50
2023-05-10T11:42:01.291Z,2.30
2023-05-10T11:47:04.200Z,1.80
2023-05-10T11:52:08.614Z,2.30
2023-05-10T11:57:11.182Z,1.90
2023-05-10T12:02:15.436Z,1.80
2023-05-10T12:07:18.524Z,2.50
2023-05-10T12:12:21.132Z,2.00
2023-05-10T12:17:29.951Z,1.90
2023-05-10T12:22:35.888Z,2.30
2023-05-10T12:27:38.647Z,2.10
2023-05-10T12:32:43.077Z,1.90
2023-05-10T12:37:45.973Z,2.70
2023-05-10T12:42:50.178Z,3.00
2023-05-10T12:47:52.921Z,2.00
2023-05-10T12:52:56.020Z,2.50
2023-05-10T12:57:58.781Z,2.30
2023-05-10T13:03:01.621Z,2.00
2023-05-10T13:08:04.329Z,2.60
2023-05-10T13:13:08.630Z,2.20
2023-05-10T13:18:11.425Z,2.10
2023-05-10T13:23:14.118Z,1.90
2023-05-10T13:28:16.832Z,1.90
2023-05-10T13:33:19.440Z,2.20
2023-05-10T13:38:22.544Z,2.30
2023-05-10T13:43:25.451Z,2.20
2023-05-10T13:48:28.250Z,2.50
2023-05-10T13:53:30.890Z,1.90
2023-05-10T13:59:24.105Z,2.10
2023-05-10T14:04:27.050Z,2.10
2023-05-10T14:09:30.000Z,2.00
2023-05-10T14:14:32.996Z,2.20
2023-05-10T14:19:35.584Z,1.90
2023-05-10T14:24:39.152Z,1.00
2023-05-10T14:29:41.760Z,1.50
2023-05-10T14:34:44.432Z,2.30
2023-05-10T14:39:47.059Z,1.40
2023-05-10T14:44:49.710Z,1.60
2023-05-10T14:49:52.617Z,2.40
2023-05-10T14:54:55.632Z,1.70
2023-05-10T14:59:58.611Z,1.40
2023-05-10T15:05:01.994Z,2.00
2023-05-10T15:10:06.510Z,1.90
2023-05-10T15:15:09.554Z,1.70
2023-05-10T15:20:12.703Z,2.10
2023-05-10T15:25:16.931Z,1.60
2023-05-10T15:30:19.872Z,1.80
2023-05-10T15:35:22.661Z,1.70
2023-05-10T15:40:26.164Z,1.90
2023-05-10T15:45:29.005Z,2.20
2023-05-10T15:50:31.983Z,2.10
2023-05-10T15:55:35.344Z,2.00
2023-05-10T16:00:39.191Z,2.00
2023-05-10T16:05:42.012Z,2.20
2023-05-10T16:10:45.229Z,1.60
2023-05-10T16:15:47.866Z,2.00
2023-05-10T16:20:50.624Z,1.80
2023-05-10T16:25:53.754Z,1.50
2023-05-10T16:30:56.506Z,1.70
2023-05-10T16:35:59.165Z,2.20
2023-05-10T16:41:03.604Z,2.20
2023-05-10T16:46:12.952Z,2.40
2023-05-10T16:51:15.712Z,2.20
2023-05-10T16:56:18.460Z,2.10
2023-05-10T17:01:21.508Z,1.70
2023-05-10T17:06:25.333Z,1.60
2023-05-10T17:11:29.827Z,2.20
2023-05-10T17:16:32.681Z,1.90
2023-05-10T17:21:35.665Z,2.20
2023-05-10T17:26:38.282Z,1.90
2023-05-10T17:31:40.952Z,1.90
2023-05-10T17:36:43.666Z,2.00
2023-05-10T17:41:46.370Z,1.70
2023-05-10T17:46:48.979Z,1.90
2023-05-10T17:51:54.919Z,1.50
2023-05-10T17:56:58.278Z,1.90
2023-05-10T18:02:02.675Z,2.10
2023-05-10T18:07:05.256Z,2.00
2023-05-10T18:12:07.988Z,1.90
2023-05-10T18:17:10.874Z,2.10
2023-05-10T18:22:13.763Z,2.20
2023-05-10T18:27:16.534Z,3.40
2023-05-10T18:32:19.149Z,3.00
2023-05-10T18:37:21.765Z,2.60
2023-05-10T18:42:24.507Z,2.50
2023-05-10T18:47:27.747Z,2.80
2023-05-10T18:52:30.379Z,2.70
2023-05-10T18:57:32.946Z,2.70
2023-05-10T19:02:36.676Z,2.80
2023-05-10T19:07:43.389Z,2.60
2023-05-10T19:12:45.988Z,3.30
2023-05-10T19:17:48.758Z,3.30
2023-05-10T19:23:08.575Z,2.50
2023-05-10T19:28:12.672Z,2.60
2023-05-10T19:33:15.363Z,2.50
2023-05-10T19:38:25.774Z,2.60
2023-05-10T19:43:33.305Z,3.70
2023-05-10T19:48:36.946Z,2.90
2023-05-10T19:53:44.179Z,4.50
2023-05-10T19:58:47.010Z,5.50
2023-05-10T20:03:49.595Z,8.90
2023-05-10T20:08:52.277Z,5.90
2023-05-10T20:13:54.967Z,21.30
2023-05-10T20:18:57.760Z,7.80
2023-05-10T20:24:00.522Z,5.20
2023-05-10T20:29:03.685Z,36.10
2023-05-10T20:34:06.428Z,28.10
2023-05-10T20:39:09.745Z,11.40
2023-05-10T20:44:12.466Z,6.60
2023-05-10T20:49:15.185Z,3.70
2023-05-10T20:54:17.850Z,3.10
2023-05-10T20:59:21.840Z,2.90
2023-05-10T21:04:25.927Z,3.10
2023-05-10T21:09:28.661Z,2.70
2023-05-10T21:14:31.267Z,2.70
2023-05-10T21:19:34.026Z,2.50
2023-05-10T21:24:36.676Z,2.40
2023-05-10T21:29:39.290Z,2.60
2023-05-10T21:34:42.003Z,2.80
2023-05-10T21:39:44.729Z,2.70
2023-05-10T21:44:47.936Z,2.50
2023-05-10T21:49:50.588Z,2.50
2023-05-10T21:54:53.139Z,2.80
2023-05-10T21:59:55.885Z,2.70
2023-05-10T22:04:58.544Z,3.10
2023-05-10T22:10:01.340Z,4.90
2023-05-10T22:20:11.080Z,3.30
2023-05-10T22:25:13.771Z,4.10
2023-05-10T22:30:17.133Z,4.20
2023-05-10T22:35:20.283Z,4.60
2023-05-10T22:40:22.901Z,5.70
2023-05-10T22:45:25.772Z,4.50
2023-05-10T22:50:30.784Z,4.20
2023-05-10T22:55:33.599Z,2.60
2023-05-10T23:00:36.357Z,3.80
2023-05-10T23:05:38.961Z,4.10
2023-05-10T23:10:41.651Z,3.80
2023-05-10T23:15:44.217Z,3.50
2023-05-10T23:20:46.920Z,3.70
2023-05-10T23:25:49.536Z,3.50
2023-05-10T23:30:56.784Z,3.40
2023-05-10T23:35:59.441Z,3.60
2023-05-10T23:41:02.060Z,3.00
2023-05-10T23:46:06.491Z,3.40
2023-05-10T23:51:09.159Z,4.10
2023-05-10T23:56:11.871Z,3.80
